»·PEaware :: N343GE KSNA-KCRQ

N343GE :: KSNA-KCRQ

FLIGHT INFORMATION

Flight Status: Arrived
Operator: Privately registered:
United States
More flights under this callsign
Pilot: Hyatt B. (30410)
Aircraft: PIPER PA-28 CHEROKEE ARCHER
(PA28)
More flights by this aircraft type
Origin: KSNA John Wayne-Orange Co
United States
Destination: KCRQ McClellan-Palomar
United States
More flights between these airports :: More routes between these airports
Route: V23 OCN
File this flight plan on PilotEdge
Remarks:
Altitude:
(Current/Filed)
5,000ft
Speed:
(Current/Filed)
130kts
Departed: 24-Jul-20 12:32 PM
Arrived: 24-Jul-20 01:15 PM
Distance/Time
Traveled:
44nm/0:43
Distance/Time
To Go:
Arrived

Flight Plot

Page will automatically refresh every two minutes.


Map Options




Map Legend


Flown Route
Filed Route
Departure Airport
Arrival Airport
Navaid (VOR, NDB)
Fix

Horizontal Profiles

Position Reports

Time Latitude Longitude Heading Altitude Ground
Speed
24-Jul-20 12:16 33.670893 -117.867575 32 54ft 0kts
24-Jul-20 12:17 33.670893 -117.867575 32 54ft 0kts
24-Jul-20 12:18 33.670893 -117.867575 32 54ft 0kts
24-Jul-20 12:19 33.670893 -117.867575 32 54ft 0kts
24-Jul-20 12:20 33.670893 -117.867575 32 54ft 0kts
24-Jul-20 12:21 33.670893 -117.867575 32 54ft 0kts
24-Jul-20 12:22 33.670893 -117.867575 32 54ft 0kts
24-Jul-20 12:23 33.671280 -117.867975 306 54ft 3kts
24-Jul-20 12:24 33.671302 -117.868011 306 54ft 0kts
24-Jul-20 12:25 33.671779 -117.868328 357 54ft 6kts
24-Jul-20 12:26 33.673340 -117.867007 31 52ft 7kts
24-Jul-20 12:27 33.675270 -117.866376 28 49ft 10kts
24-Jul-20 12:28 33.678025 -117.864648 28 43ft 10kts
24-Jul-20 12:29 33.679924 -117.863544 321 41ft 2kts
24-Jul-20 12:30 33.680073 -117.864103 244 42ft 7kts
24-Jul-20 12:31 33.665901 -117.872042 198 402ft 80kts
24-Jul-20 12:32 33.640031 -117.872964 186 984ft 98kts
24-Jul-20 12:33 33.613390 -117.876056 186 1677ft 94kts
24-Jul-20 12:34 33.587385 -117.878750 186 2271ft 98kts
24-Jul-20 12:35 33.561778 -117.873166 114 2781ft 103kts
24-Jul-20 12:36 33.550765 -117.841036 111 3289ft 103kts
24-Jul-20 12:37 33.539716 -117.809353 110 3781ft 102kts
24-Jul-20 12:38 33.530500 -117.777181 108 4278ft 101kts
24-Jul-20 12:39 33.521540 -117.745634 109 4773ft 98kts
24-Jul-20 12:40 33.502792 -117.720632 142 5004ft 116kts
24-Jul-20 12:41 33.477715 -117.695837 141 4996ft 116kts
24-Jul-20 12:42 33.454119 -117.669421 137 4994ft 116kts
24-Jul-20 12:43 33.432025 -117.641535 137 4992ft 114kts
24-Jul-20 12:44 33.410488 -117.613962 137 4991ft 113kts
24-Jul-20 12:45 33.389233 -117.586560 137 4990ft 111kts
24-Jul-20 12:46 33.366652 -117.561365 143 4991ft 110kts
24-Jul-20 12:47 33.343535 -117.537229 143 4991ft 110kts
24-Jul-20 12:48 33.320447 -117.513121 143 4991ft 110kts
24-Jul-20 12:49 33.297349 -117.489001 143 4991ft 110kts
24-Jul-20 12:50 33.274379 -117.464496 141 4991ft 110kts
24-Jul-20 12:51 33.256091 -117.434753 139 4992ft 111kts
24-Jul-20 12:52 33.241924 -117.403856 91 4994ft 118kts
24-Jul-20 12:53 33.243183 -117.364599 90 4993ft 118kts
24-Jul-20 12:54 33.244455 -117.325136 91 4992ft 118kts
24-Jul-20 12:55 33.245695 -117.285817 91 4994ft 118kts
24-Jul-20 12:56 33.246893 -117.246418 91 4995ft 118kts
24-Jul-20 12:57 33.248048 -117.206877 91 4996ft 119kts
24-Jul-20 12:58 33.249152 -117.167178 91 4997ft 119kts
24-Jul-20 12:59 33.250170 -117.128633 91 4998ft 119kts
24-Jul-20 13:00 33.251193 -117.088728 91 5000ft 120kts
24-Jul-20 13:01 33.249693 -117.049566 133 5001ft 114kts
24-Jul-20 13:02 33.224704 -117.027875 151 4976ft 113kts
24-Jul-20 13:03 33.198919 -117.006755 151 4375ft 111kts
24-Jul-20 13:04 33.173729 -117.001857 227 3961ft 84kts
24-Jul-20 13:05 33.168035 -117.029415 259 3597ft 78kts
24-Jul-20 13:06 33.164621 -117.053066 258 3573ft 69kts
24-Jul-20 13:07 33.160832 -117.077202 257 3606ft 84kts
24-Jul-20 13:08 33.155713 -117.108874 257 3240ft 111kts
24-Jul-20 13:09 33.149619 -117.147194 258 2581ft 115kts
24-Jul-20 13:10 33.143976 -117.182475 258 1951ft 103kts
24-Jul-20 13:11 33.138714 -117.215186 258 1373ft 99kts
24-Jul-20 13:12 33.133502 -117.247532 258 806ft 99kts
24-Jul-20 13:13 33.129500 -117.272531 254 355ft 64kts
24-Jul-20 13:14 33.127547 -117.282565 228 319ft 5kts
24-Jul-20 13:15 33.126869 -117.280767 79 315ft 0kts
24-Jul-20 13:16 33.126869 -117.280767 79 315ft 0kts
24-Jul-20 13:17 33.126869 -117.280767 79 315ft 0kts
24-Jul-20 13:18 33.126869 -117.280767 79 315ft 0kts
24-Jul-20 13:19 33.126869 -117.280767 79 315ft 0kts
24-Jul-20 13:20 33.126869 -117.280767 79 315ft 0kts
24-Jul-20 13:21 33.126869 -117.280767 79 315ft 0kts

Navigation Log

Ident Type
Flight plan parsing failed, navigation log unavailable